sensor_id;sensor_type;location;lat;lon;timestamp;P1;durP1;ratioP1;P2;durP2;ratioP2
53751;SDS011;41095;53.090;6.692;2023-04-24T00:00:08;1.40;;;1.30;;
53751;SDS011;41095;53.090;6.692;2023-04-24T00:02:34;2.33;;;1.67;;
53751;SDS011;41095;53.090;6.692;2023-04-24T00:05:03;1.10;;;1.10;;
53751;SDS011;41095;53.090;6.692;2023-04-24T00:07:30;2.05;;;1.50;;
53751;SDS011;41095;53.090;6.692;2023-04-24T00:09:56;1.65;;;1.35;;
53751;SDS011;41095;53.090;6.692;2023-04-24T00:12:22;1.05;;;1.05;;
53751;SDS011;41095;53.090;6.692;2023-04-24T00:14:48;1.67;;;1.10;;
53751;SDS011;41095;53.090;6.692;2023-04-24T00:17:14;0.90;;;0.90;;
53751;SDS011;41095;53.090;6.692;2023-04-24T00:19:40;1.20;;;1.08;;
53751;SDS011;41095;53.090;6.692;2023-04-24T00:22:06;0.88;;;0.88;;
53751;SDS011;41095;53.090;6.692;2023-04-24T00:24:31;5.05;;;1.92;;
53751;SDS011;41095;53.090;6.692;2023-04-24T00:26:57;1.10;;;1.00;;
53751;SDS011;41095;53.090;6.692;2023-04-24T00:29:23;1.23;;;1.13;;
53751;SDS011;41095;53.090;6.692;2023-04-24T00:31:49;0.80;;;0.80;;
53751;SDS011;41095;53.090;6.692;2023-04-24T00:34:14;0.77;;;0.77;;
53751;SDS011;41095;53.090;6.692;2023-04-24T00:36:40;1.13;;;1.00;;
53751;SDS011;41095;53.090;6.692;2023-04-24T00:39:06;1.15;;;1.05;;
53751;SDS011;41095;53.090;6.692;2023-04-24T00:41:33;0.98;;;0.98;;
53751;SDS011;41095;53.090;6.692;2023-04-24T00:44:00;1.23;;;1.13;;
53751;SDS011;41095;53.090;6.692;2023-04-24T00:46:25;1.45;;;1.20;;
53751;SDS011;41095;53.090;6.692;2023-04-24T00:48:51;1.25;;;0.90;;
53751;SDS011;41095;53.090;6.692;2023-04-24T00:51:18;1.30;;;1.20;;
53751;SDS011;41095;53.090;6.692;2023-04-24T00:53:43;1.50;;;1.40;;
53751;SDS011;41095;53.090;6.692;2023-04-24T00:56:09;1.95;;;1.77;;
53751;SDS011;41095;53.090;6.692;2023-04-24T00:58:35;1.33;;;1.30;;
53751;SDS011;41095;53.090;6.692;2023-04-24T01:01:01;1.42;;;1.27;;
53751;SDS011;41095;53.090;6.692;2023-04-24T01:03:32;1.90;;;1.33;;
53751;SDS011;41095;53.090;6.692;2023-04-24T01:05:58;1.67;;;1.38;;
53751;SDS011;41095;53.090;6.692;2023-04-24T01:08:24;1.50;;;1.40;;
53751;SDS011;41095;53.090;6.692;2023-04-24T01:10:53;1.52;;;1.42;;
53751;SDS011;41095;53.090;6.692;2023-04-24T01:13:20;1.17;;;1.17;;
53751;SDS011;41095;53.090;6.692;2023-04-24T01:15:46;1.77;;;1.67;;
53751;SDS011;41095;53.090;6.692;2023-04-24T01:18:12;1.50;;;1.40;;
53751;SDS011;41095;53.090;6.692;2023-04-24T01:20:39;1.58;;;1.48;;
53751;SDS011;41095;53.090;6.692;2023-04-24T01:23:07;1.77;;;1.67;;
53751;SDS011;41095;53.090;6.692;2023-04-24T01:25:33;2.15;;;1.70;;
53751;SDS011;41095;53.090;6.692;2023-04-24T01:27:59;2.33;;;2.13;;
53751;SDS011;41095;53.090;6.692;2023-04-24T01:30:25;1.92;;;1.80;;
53751;SDS011;41095;53.090;6.692;2023-04-24T01:32:51;2.03;;;1.92;;
53751;SDS011;41095;53.090;6.692;2023-04-24T01:35:17;1.83;;;1.73;;
53751;SDS011;41095;53.090;6.692;2023-04-24T01:37:43;2.17;;;1.83;;
53751;SDS011;41095;53.090;6.692;2023-04-24T01:40:10;2.33;;;2.13;;
53751;SDS011;41095;53.090;6.692;2023-04-24T01:42:35;2.13;;;1.92;;
53751;SDS011;41095;53.090;6.692;2023-04-24T01:45:02;4.97;;;2.78;;
53751;SDS011;41095;53.090;6.692;2023-04-24T01:47:29;3.38;;;2.90;;
53751;SDS011;41095;53.090;6.692;2023-04-24T01:49:55;3.47;;;3.17;;
53751;SDS011;41095;53.090;6.692;2023-04-24T01:52:21;2.67;;;2.47;;
53751;SDS011;41095;53.090;6.692;2023-04-24T01:54:47;2.88;;;2.67;;
53751;SDS011;41095;53.090;6.692;2023-04-24T01:57:13;3.05;;;2.80;;
53751;SDS011;41095;53.090;6.692;2023-04-24T01:59:39;3.35;;;3.05;;
53751;SDS011;41095;53.090;6.692;2023-04-24T02:02:05;3.72;;;3.42;;
53751;SDS011;41095;53.090;6.692;2023-04-24T02:04:31;3.40;;;3.20;;
53751;SDS011;41095;53.090;6.692;2023-04-24T02:06:57;3.13;;;2.83;;
53751;SDS011;41095;53.090;6.692;2023-04-24T02:09:22;3.95;;;3.65;;
53751;SDS011;41095;53.090;6.692;2023-04-24T02:11:48;3.30;;;3.03;;
53751;SDS011;41095;53.090;6.692;2023-04-24T02:14:13;4.75;;;3.95;;
53751;SDS011;41095;53.090;6.692;2023-04-24T02:16:39;4.85;;;4.35;;
53751;SDS011;41095;53.090;6.692;2023-04-24T02:19:05;4.47;;;4.13;;
53751;SDS011;41095;53.090;6.692;2023-04-24T02:21:31;5.35;;;4.85;;
53751;SDS011;41095;53.090;6.692;2023-04-24T02:23:57;4.93;;;4.53;;
53751;SDS011;41095;53.090;6.692;2023-04-24T02:26:22;5.28;;;4.80;;
53751;SDS011;41095;53.090;6.692;2023-04-24T02:28:48;5.55;;;5.05;;
53751;SDS011;41095;53.090;6.692;2023-04-24T02:31:14;5.85;;;5.28;;
53751;SDS011;41095;53.090;6.692;2023-04-24T02:33:40;6.10;;;5.50;;
53751;SDS011;41095;53.090;6.692;2023-04-24T02:36:06;5.65;;;5.15;;
53751;SDS011;41095;53.090;6.692;2023-04-24T02:38:31;5.93;;;5.32;;
53751;SDS011;41095;53.090;6.692;2023-04-24T02:40:57;6.53;;;5.93;;
53751;SDS011;41095;53.090;6.692;2023-04-24T02:43:23;5.90;;;5.40;;
53751;SDS011;41095;53.090;6.692;2023-04-24T02:45:49;6.68;;;6.07;;
53751;SDS011;41095;53.090;6.692;2023-04-24T02:48:14;6.45;;;5.68;;
53751;SDS011;41095;53.090;6.692;2023-04-24T02:50:40;7.15;;;6.55;;
53751;SDS011;41095;53.090;6.692;2023-04-24T02:53:06;6.00;;;5.50;;
53751;SDS011;41095;53.090;6.692;2023-04-24T02:55:31;7.72;;;7.13;;
53751;SDS011;41095;53.090;6.692;2023-04-24T02:57:57;7.70;;;7.00;;
53751;SDS011;41095;53.090;6.692;2023-04-24T03:00:23;8.05;;;7.35;;
53751;SDS011;41095;53.090;6.692;2023-04-24T03:02:49;7.72;;;7.13;;
53751;SDS011;41095;53.090;6.692;2023-04-24T03:05:15;8.93;;;8.18;;
53751;SDS011;41095;53.090;6.692;2023-04-24T03:07:41;8.73;;;7.97;;
53751;SDS011;41095;53.090;6.692;2023-04-24T03:10:06;8.60;;;7.90;;
53751;SDS011;41095;53.090;6.692;2023-04-24T03:12:32;9.18;;;8.50;;
53751;SDS011;41095;53.090;6.692;2023-04-24T03:14:58;9.15;;;8.35;;
53751;SDS011;41095;53.090;6.692;2023-04-24T03:17:24;9.15;;;8.05;;
53751;SDS011;41095;53.090;6.692;2023-04-24T03:19:50;8.05;;;7.35;;
53751;SDS011;41095;53.090;6.692;2023-04-24T03:22:15;7.38;;;6.78;;
53751;SDS011;41095;53.090;6.692;2023-04-24T03:24:41;7.82;;;7.22;;
53751;SDS011;41095;53.090;6.692;2023-04-24T03:27:07;7.78;;;7.07;;
53751;SDS011;41095;53.090;6.692;2023-04-24T03:29:33;7.68;;;6.95;;
53751;SDS011;41095;53.090;6.692;2023-04-24T03:31:58;7.07;;;6.57;;
53751;SDS011;41095;53.090;6.692;2023-04-24T03:34:24;6.82;;;6.32;;
53751;SDS011;41095;53.090;6.692;2023-04-24T03:36:50;7.05;;;6.35;;
53751;SDS011;41095;53.090;6.692;2023-04-24T03:39:15;7.30;;;6.70;;
53751;SDS011;41095;53.090;6.692;2023-04-24T03:41:41;6.57;;;6.07;;
53751;SDS011;41095;53.090;6.692;2023-04-24T03:44:07;6.40;;;5.82;;
53751;SDS011;41095;53.090;6.692;2023-04-24T03:46:32;6.03;;;5.53;;
53751;SDS011;41095;53.090;6.692;2023-04-24T03:48:58;6.13;;;5.63;;
53751;SDS011;41095;53.090;6.692;2023-04-24T03:51:24;6.10;;;5.55;;
53751;SDS011;41095;53.090;6.692;2023-04-24T03:53:50;6.20;;;5.70;;
53751;SDS011;41095;53.090;6.692;2023-04-24T03:56:16;6.35;;;5.75;;
53751;SDS011;41095;53.090;6.692;2023-04-24T03:58:42;5.32;;;4.80;;
53751;SDS011;41095;53.090;6.692;2023-04-24T04:01:07;6.07;;;5.60;;
53751;SDS011;41095;53.090;6.692;2023-04-24T04:03:33;5.90;;;5.50;;
53751;SDS011;41095;53.090;6.692;2023-04-24T04:05:59;5.40;;;5.00;;
53751;SDS011;41095;53.090;6.692;2023-04-24T04:08:24;5.32;;;4.93;;
53751;SDS011;41095;53.090;6.692;2023-04-24T04:10:50;5.65;;;5.25;;
53751;SDS011;41095;53.090;6.692;2023-04-24T04:13:16;6.00;;;5.18;;
53751;SDS011;41095;53.090;6.692;2023-04-24T04:15:41;6.10;;;5.55;;
53751;SDS011;41095;53.090;6.692;2023-04-24T04:18:08;5.72;;;4.95;;
53751;SDS011;41095;53.090;6.692;2023-04-24T04:20:33;5.40;;;5.00;;
53751;SDS011;41095;53.090;6.692;2023-04-24T04:22:59;6.40;;;5.80;;
53751;SDS011;41095;53.090;6.692;2023-04-24T04:25:25;6.60;;;6.10;;
53751;SDS011;41095;53.090;6.692;2023-04-24T04:27:51;6.45;;;5.85;;
53751;SDS011;41095;53.090;6.692;2023-04-24T04:30:17;6.65;;;6.05;;
53751;SDS011;41095;53.090;6.692;2023-04-24T04:32:43;7.47;;;6.60;;
53751;SDS011;41095;53.090;6.692;2023-04-24T04:35:09;7.85;;;7.03;;
53751;SDS011;41095;53.090;6.692;2023-04-24T04:37:35;6.85;;;6.25;;
53751;SDS011;41095;53.090;6.692;2023-04-24T04:40:01;6.15;;;5.63;;
53751;SDS011;41095;53.090;6.692;2023-04-24T04:42:36;6.55;;;6.05;;
53751;SDS011;41095;53.090;6.692;2023-04-24T04:45:06;7.53;;;6.82;;
53751;SDS011;41095;53.090;6.692;2023-04-24T04:47:33;6.63;;;5.95;;
53751;SDS011;41095;53.090;6.692;2023-04-24T04:50:00;6.28;;;5.70;;
53751;SDS011;41095;53.090;6.692;2023-04-24T04:52:26;5.45;;;4.95;;
53751;SDS011;41095;53.090;6.692;2023-04-24T04:54:52;5.82;;;5.38;;
53751;SDS011;41095;53.090;6.692;2023-04-24T04:57:18;5.25;;;4.78;;
53751;SDS011;41095;53.090;6.692;2023-04-24T04:59:43;5.07;;;4.68;;
53751;SDS011;41095;53.090;6.692;2023-04-24T05:02:09;4.75;;;4.22;;
53751;SDS011;41095;53.090;6.692;2023-04-24T05:04:35;4.65;;;4.30;;
53751;SDS011;41095;53.090;6.692;2023-04-24T05:07:01;5.03;;;4.50;;
53751;SDS011;41095;53.090;6.692;2023-04-24T05:09:26;4.15;;;3.13;;
53751;SDS011;41095;53.090;6.692;2023-04-24T05:11:54;3.15;;;2.55;;
53751;SDS011;41095;53.090;6.692;2023-04-24T05:14:20;3.15;;;2.88;;
53751;SDS011;41095;53.090;6.692;2023-04-24T05:16:46;3.10;;;2.08;;
53751;SDS011;41095;53.090;6.692;2023-04-24T05:19:12;3.20;;;2.45;;
53751;SDS011;41095;53.090;6.692;2023-04-24T05:21:39;2.78;;;2.03;;
53751;SDS011;41095;53.090;6.692;2023-04-24T05:24:05;2.63;;;2.28;;
53751;SDS011;41095;53.090;6.692;2023-04-24T05:26:31;2.70;;;1.83;;
53751;SDS011;41095;53.090;6.692;2023-04-24T05:28:57;6.55;;;2.05;;
53751;SDS011;41095;53.090;6.692;2023-04-24T05:31:23;6.43;;;2.78;;
53751;SDS011;41095;53.090;6.692;2023-04-24T05:33:48;2.00;;;1.80;;
53751;SDS011;41095;53.090;6.692;2023-04-24T05:36:14;2.13;;;1.88;;
53751;SDS011;41095;53.090;6.692;2023-04-24T05:38:40;1.75;;;1.65;;
53751;SDS011;41095;53.090;6.692;2023-04-24T05:41:06;2.28;;;1.75;;
53751;SDS011;41095;53.090;6.692;2023-04-24T05:43:32;1.85;;;1.75;;
53751;SDS011;41095;53.090;6.692;2023-04-24T05:45:57;2.15;;;2.00;;
53751;SDS011;41095;53.090;6.692;2023-04-24T05:48:23;1.70;;;1.60;;
53751;SDS011;41095;53.090;6.692;2023-04-24T05:50:49;1.90;;;1.80;;
53751;SDS011;41095;53.090;6.692;2023-04-24T05:53:14;3.15;;;2.33;;
53751;SDS011;41095;53.090;6.692;2023-04-24T05:55:40;2.30;;;2.10;;
53751;SDS011;41095;53.090;6.692;2023-04-24T05:58:06;2.05;;;1.63;;
53751;SDS011;41095;53.090;6.692;2023-04-24T06:00:32;2.17;;;1.92;;
53751;SDS011;41095;53.090;6.692;2023-04-24T06:02:59;2.50;;;1.77;;
53751;SDS011;41095;53.090;6.692;2023-04-24T06:05:25;2.33;;;2.08;;
53751;SDS011;41095;53.090;6.692;2023-04-24T06:07:51;3.72;;;1.92;;
53751;SDS011;41095;53.090;6.692;2023-04-24T06:10:17;2.10;;;2.00;;
53751;SDS011;41095;53.090;6.692;2023-04-24T06:12:43;2.03;;;1.83;;
53751;SDS011;41095;53.090;6.692;2023-04-24T06:15:09;2.50;;;2.30;;
53751;SDS011;41095;53.090;6.692;2023-04-24T06:17:35;2.50;;;2.30;;
53751;SDS011;41095;53.090;6.692;2023-04-24T06:20:00;2.25;;;2.05;;
53751;SDS011;41095;53.090;6.692;2023-04-24T06:22:28;1.95;;;1.85;;
53751;SDS011;41095;53.090;6.692;2023-04-24T06:24:54;1.70;;;1.60;;
53751;SDS011;41095;53.090;6.692;2023-04-24T06:27:20;2.15;;;1.90;;
53751;SDS011;41095;53.090;6.692;2023-04-24T06:29:46;4.32;;;2.10;;
53751;SDS011;41095;53.090;6.692;2023-04-24T06:32:17;2.88;;;1.70;;
53751;SDS011;41095;53.090;6.692;2023-04-24T06:34:43;2.17;;;1.70;;
53751;SDS011;41095;53.090;6.692;2023-04-24T06:37:09;2.10;;;1.90;;
53751;SDS011;41095;53.090;6.692;2023-04-24T06:39:34;3.15;;;2.42;;
53751;SDS011;41095;53.090;6.692;2023-04-24T06:42:00;2.72;;;2.38;;
53751;SDS011;41095;53.090;6.692;2023-04-24T06:44:26;4.68;;;3.10;;
53751;SDS011;41095;53.090;6.692;2023-04-24T06:46:51;5.72;;;3.33;;
53751;SDS011;41095;53.090;6.692;2023-04-24T06:49:17;4.05;;;3.60;;
53751;SDS011;41095;53.090;6.692;2023-04-24T06:51:43;3.53;;;3.22;;
53751;SDS011;41095;53.090;6.692;2023-04-24T06:54:08;4.15;;;3.53;;
53751;SDS011;41095;53.090;6.692;2023-04-24T06:56:34;5.20;;;3.70;;
53751;SDS011;41095;53.090;6.692;2023-04-24T06:59:00;5.05;;;4.15;;
53751;SDS011;41095;53.090;6.692;2023-04-24T07:01:26;5.40;;;4.63;;
53751;SDS011;41095;53.090;6.692;2023-04-24T07:03:52;6.30;;;4.55;;
53751;SDS011;41095;53.090;6.692;2023-04-24T07:06:18;7.97;;;4.97;;
53751;SDS011;41095;53.090;6.692;2023-04-24T07:08:46;7.25;;;5.55;;
53751;SDS011;41095;53.090;6.692;2023-04-24T07:11:12;5.38;;;4.85;;
53751;SDS011;41095;53.090;6.692;2023-04-24T07:13:38;7.93;;;5.38;;
53751;SDS011;41095;53.090;6.692;2023-04-24T07:16:07;7.13;;;5.40;;
53751;SDS011;41095;53.090;6.692;2023-04-24T07:18:33;5.78;;;5.00;;
53751;SDS011;41095;53.090;6.692;2023-04-24T07:21:01;6.72;;;5.20;;
53751;SDS011;41095;53.090;6.692;2023-04-24T07:23:27;5.65;;;5.07;;
53751;SDS011;41095;53.090;6.692;2023-04-24T07:25:53;6.80;;;4.97;;
53751;SDS011;41095;53.090;6.692;2023-04-24T07:28:19;6.97;;;4.70;;
53751;SDS011;41095;53.090;6.692;2023-04-24T07:30:45;4.03;;;3.65;;
53751;SDS011;41095;53.090;6.692;2023-04-24T07:33:11;4.80;;;2.88;;
53751;SDS011;41095;53.090;6.692;2023-04-24T07:35:38;7.90;;;2.53;;
53751;SDS011;41095;53.090;6.692;2023-04-24T07:38:04;4.07;;;3.05;;
53751;SDS011;41095;53.090;6.692;2023-04-24T07:40:30;5.22;;;2.95;;
53751;SDS011;41095;53.090;6.692;2023-04-24T07:42:55;3.35;;;2.50;;
53751;SDS011;41095;53.090;6.692;2023-04-24T07:45:21;4.10;;;2.70;;
53751;SDS011;41095;53.090;6.692;2023-04-24T07:47:48;3.45;;;2.63;;
53751;SDS011;41095;53.090;6.692;2023-04-24T07:50:15;3.20;;;2.50;;
53751;SDS011;41095;53.090;6.692;2023-04-24T07:52:41;2.80;;;2.03;;
53751;SDS011;41095;53.090;6.692;2023-04-24T07:55:06;2.22;;;2.03;;
53751;SDS011;41095;53.090;6.692;2023-04-24T07:57:33;2.65;;;2.30;;
53751;SDS011;41095;53.090;6.692;2023-04-24T07:59:59;3.55;;;2.42;;
53751;SDS011;41095;53.090;6.692;2023-04-24T08:02:24;4.00;;;2.55;;
53751;SDS011;41095;53.090;6.692;2023-04-24T08:04:54;5.20;;;3.15;;
53751;SDS011;41095;53.090;6.692;2023-04-24T08:07:20;5.10;;;2.70;;
53751;SDS011;41095;53.090;6.692;2023-04-24T08:09:46;4.28;;;3.05;;
53751;SDS011;41095;53.090;6.692;2023-04-24T08:12:12;3.20;;;3.00;;
53751;SDS011;41095;53.090;6.692;2023-04-24T08:14:37;5.68;;;2.70;;
53751;SDS011;41095;53.090;6.692;2023-04-24T08:17:03;5.95;;;2.80;;
53751;SDS011;41095;53.090;6.692;2023-04-24T08:19:29;3.53;;;3.00;;
53751;SDS011;41095;53.090;6.692;2023-04-24T08:21:55;5.57;;;3.10;;
53751;SDS011;41095;53.090;6.692;2023-04-24T08:24:20;5.07;;;3.58;;
53751;SDS011;41095;53.090;6.692;2023-04-24T08:26:47;6.53;;;3.50;;
53751;SDS011;41095;53.090;6.692;2023-04-24T08:29:15;5.07;;;4.13;;
53751;SDS011;41095;53.090;6.692;2023-04-24T08:31:41;6.65;;;5.38;;
53751;SDS011;41095;53.090;6.692;2023-04-24T08:34:07;8.02;;;5.35;;
53751;SDS011;41095;53.090;6.692;2023-04-24T08:36:32;8.20;;;6.55;;
53751;SDS011;41095;53.090;6.692;2023-04-24T08:38:58;8.35;;;6.57;;
53751;SDS011;41095;53.090;6.692;2023-04-24T08:41:24;13.20;;;8.88;;
53751;SDS011;41095;53.090;6.692;2023-04-24T08:43:51;11.68;;;8.95;;
53751;SDS011;41095;53.090;6.692;2023-04-24T08:46:18;15.60;;;11.95;;
53751;SDS011;41095;53.090;6.692;2023-04-24T08:48:44;16.00;;;11.02;;
53751;SDS011;41095;53.090;6.692;2023-04-24T08:51:10;19.65;;;12.38;;
53751;SDS011;41095;53.090;6.692;2023-04-24T08:53:36;15.90;;;10.38;;
53751;SDS011;41095;53.090;6.692;2023-04-24T08:56:02;24.05;;;11.55;;
53751;SDS011;41095;53.090;6.692;2023-04-24T08:58:28;19.70;;;11.93;;
53751;SDS011;41095;53.090;6.692;2023-04-24T09:00:55;18.08;;;10.80;;
53751;SDS011;41095;53.090;6.692;2023-04-24T09:03:21;20.90;;;13.98;;
53751;SDS011;41095;53.090;6.692;2023-04-24T09:05:48;19.83;;;11.80;;
53751;SDS011;41095;53.090;6.692;2023-04-24T09:08:16;15.63;;;11.82;;
53751;SDS011;41095;53.090;6.692;2023-04-24T09:10:44;17.45;;;10.95;;
53751;SDS011;41095;53.090;6.692;2023-04-24T09:13:10;17.33;;;10.75;;
53751;SDS011;41095;53.090;6.692;2023-04-24T09:15:37;16.90;;;11.10;;
53751;SDS011;41095;53.090;6.692;2023-04-24T09:18:04;16.40;;;11.45;;
53751;SDS011;41095;53.090;6.692;2023-04-24T09:20:30;13.27;;;10.57;;
53751;SDS011;41095;53.090;6.692;2023-04-24T09:22:57;17.27;;;10.43;;
53751;SDS011;41095;53.090;6.692;2023-04-24T09:25:25;15.98;;;11.25;;
53751;SDS011;41095;53.090;6.692;2023-04-24T09:28:00;20.40;;;11.80;;
53751;SDS011;41095;53.090;6.692;2023-04-24T09:30:27;14.82;;;11.85;;
53751;SDS011;41095;53.090;6.692;2023-04-24T09:33:10;16.40;;;11.02;;
53751;SDS011;41095;53.090;6.692;2023-04-24T09:35:50;19.08;;;10.93;;
53751;SDS011;41095;53.090;6.692;2023-04-24T09:38:17;14.00;;;9.82;;
53751;SDS011;41095;53.090;6.692;2023-04-24T09:40:42;12.75;;;10.07;;
53751;SDS011;41095;53.090;6.692;2023-04-24T09:43:11;13.35;;;9.82;;
53751;SDS011;41095;53.090;6.692;2023-04-24T09:45:37;12.45;;;8.50;;
53751;SDS011;41095;53.090;6.692;2023-04-24T09:48:04;10.07;;;7.63;;
53751;SDS011;41095;53.090;6.692;2023-04-24T09:50:31;13.85;;;7.80;;
53751;SDS011;41095;53.090;6.692;2023-04-24T09:53:01;13.85;;;8.23;;
53751;SDS011;41095;53.090;6.692;2023-04-24T09:55:27;9.75;;;7.80;;
53751;SDS011;41095;53.090;6.692;2023-04-24T09:57:54;8.70;;;7.65;;
53751;SDS011;41095;53.090;6.692;2023-04-24T10:00:25;13.95;;;8.02;;
53751;SDS011;41095;53.090;6.692;2023-04-24T10:03:00;11.05;;;8.38;;
53751;SDS011;41095;53.090;6.692;2023-04-24T10:05:33;11.25;;;7.65;;
53751;SDS011;41095;53.090;6.692;2023-04-24T10:08:18;12.13;;;8.15;;
53751;SDS011;41095;53.090;6.692;2023-04-24T10:10:45;10.63;;;7.22;;
53751;SDS011;41095;53.090;6.692;2023-04-24T10:13:12;11.90;;;6.78;;
53751;SDS011;41095;53.090;6.692;2023-04-24T10:15:40;11.35;;;7.03;;
53751;SDS011;41095;53.090;6.692;2023-04-24T10:18:07;12.45;;;7.57;;
53751;SDS011;41095;53.090;6.692;2023-04-24T10:20:35;8.88;;;7.55;;
53751;SDS011;41095;53.090;6.692;2023-04-24T10:23:02;12.32;;;6.93;;
53751;SDS011;41095;53.090;6.692;2023-04-24T10:25:32;9.75;;;6.95;;
53751;SDS011;41095;53.090;6.692;2023-04-24T10:27:59;8.98;;;6.35;;
53751;SDS011;41095;53.090;6.692;2023-04-24T10:30:26;13.55;;;6.78;;
53751;SDS011;41095;53.090;6.692;2023-04-24T10:32:53;13.23;;;5.88;;
53751;SDS011;41095;53.090;6.692;2023-04-24T10:35:19;10.75;;;4.95;;
53751;SDS011;41095;53.090;6.692;2023-04-24T10:40:32;10.27;;;4.18;;
53751;SDS011;41095;53.090;6.692;2023-04-24T10:43:01;8.27;;;4.22;;
53751;SDS011;41095;53.090;6.692;2023-04-24T10:45:28;7.43;;;4.35;;
53751;SDS011;41095;53.090;6.692;2023-04-24T10:50:24;6.45;;;3.65;;
53751;SDS011;41095;53.090;6.692;2023-04-24T10:52:52;8.15;;;4.80;;
53751;SDS011;41095;53.090;6.692;2023-04-24T10:58:04;7.63;;;3.88;;
53751;SDS011;41095;53.090;6.692;2023-04-24T11:00:30;10.77;;;5.00;;
53751;SDS011;41095;53.090;6.692;2023-04-24T11:02:56;5.18;;;3.58;;
53751;SDS011;41095;53.090;6.692;2023-04-24T11:05:24;5.68;;;3.70;;
53751;SDS011;41095;53.090;6.692;2023-04-24T11:08:22;5.28;;;3.13;;
53751;SDS011;41095;53.090;6.692;2023-04-24T11:10:56;6.47;;;3.53;;
53751;SDS011;41095;53.090;6.692;2023-04-24T11:24:26;6.82;;;3.13;;
53751;SDS011;41095;53.090;6.692;2023-04-24T11:29:42;6.28;;;3.65;;
53751;SDS011;41095;53.090;6.692;2023-04-24T11:35:05;4.95;;;2.75;;
53751;SDS011;41095;53.090;6.692;2023-04-24T11:37:47;8.60;;;3.47;;
53751;SDS011;41095;53.090;6.692;2023-04-24T11:40:15;6.88;;;3.47;;
53751;SDS011;41095;53.090;6.692;2023-04-24T11:42:44;3.97;;;2.80;;
53751;SDS011;41095;53.090;6.692;2023-04-24T11:45:15;6.70;;;2.85;;
53751;SDS011;41095;53.090;6.692;2023-04-24T11:47:43;7.40;;;2.90;;
53751;SDS011;41095;53.090;6.692;2023-04-24T11:50:13;7.45;;;2.53;;
53751;SDS011;41095;53.090;6.692;2023-04-24T11:52:40;5.60;;;2.40;;
53751;SDS011;41095;53.090;6.692;2023-04-24T11:55:09;4.38;;;3.03;;
53751;SDS011;41095;53.090;6.692;2023-04-24T11:57:45;4.30;;;2.95;;
53751;SDS011;41095;53.090;6.692;2023-04-24T12:00:31;5.53;;;2.97;;
53751;SDS011;41095;53.090;6.692;2023-04-24T12:03:11;4.07;;;2.30;;
53751;SDS011;41095;53.090;6.692;2023-04-24T12:05:37;5.55;;;2.58;;
53751;SDS011;41095;53.090;6.692;2023-04-24T12:08:04;4.78;;;2.22;;
53751;SDS011;41095;53.090;6.692;2023-04-24T12:10:30;7.25;;;2.80;;
53751;SDS011;41095;53.090;6.692;2023-04-24T12:12:57;4.70;;;2.25;;
53751;SDS011;41095;53.090;6.692;2023-04-24T12:15:25;3.88;;;2.45;;
53751;SDS011;41095;53.090;6.692;2023-04-24T12:17:51;5.55;;;3.13;;
53751;SDS011;41095;53.090;6.692;2023-04-24T12:20:23;5.85;;;2.67;;
53751;SDS011;41095;53.090;6.692;2023-04-24T12:22:51;4.13;;;2.25;;
53751;SDS011;41095;53.090;6.692;2023-04-24T12:25:21;3.90;;;2.45;;
53751;SDS011;41095;53.090;6.692;2023-04-24T12:30:30;5.05;;;1.98;;
53751;SDS011;41095;53.090;6.692;2023-04-24T12:33:00;4.68;;;2.60;;
53751;SDS011;41095;53.090;6.692;2023-04-24T12:35:27;2.88;;;1.80;;
53751;SDS011;41095;53.090;6.692;2023-04-24T12:37:54;5.22;;;2.28;;
53751;SDS011;41095;53.090;6.692;2023-04-24T12:40:20;7.50;;;3.13;;
53751;SDS011;41095;53.090;6.692;2023-04-24T12:42:47;3.42;;;2.40;;
53751;SDS011;41095;53.090;6.692;2023-04-24T12:45:15;3.70;;;2.20;;
53751;SDS011;41095;53.090;6.692;2023-04-24T12:47:42;8.45;;;2.20;;
53751;SDS011;41095;53.090;6.692;2023-04-24T12:50:09;3.13;;;1.73;;
53751;SDS011;41095;53.090;6.692;2023-04-24T12:52:36;6.50;;;2.70;;
53751;SDS011;41095;53.090;6.692;2023-04-24T12:55:03;7.60;;;2.22;;
53751;SDS011;41095;53.090;6.692;2023-04-24T12:57:30;3.72;;;2.00;;
53751;SDS011;41095;53.090;6.692;2023-04-24T12:59:57;5.55;;;2.60;;
53751;SDS011;41095;53.090;6.692;2023-04-24T13:02:24;4.10;;;2.33;;
53751;SDS011;41095;53.090;6.692;2023-04-24T13:04:51;5.00;;;1.77;;
53751;SDS011;41095;53.090;6.692;2023-04-24T13:07:17;3.50;;;1.50;;
53751;SDS011;41095;53.090;6.692;2023-04-24T13:09:43;2.90;;;1.73;;
53751;SDS011;41095;53.090;6.692;2023-04-24T13:12:10;3.85;;;1.90;;
53751;SDS011;41095;53.090;6.692;2023-04-24T13:14:36;3.80;;;1.20;;
53751;SDS011;41095;53.090;6.692;2023-04-24T13:17:03;5.88;;;1.92;;
53751;SDS011;41095;53.090;6.692;2023-04-24T13:19:29;2.17;;;1.50;;
53751;SDS011;41095;53.090;6.692;2023-04-24T13:22:00;4.90;;;1.85;;
53751;SDS011;41095;53.090;6.692;2023-04-24T13:24:25;6.80;;;2.05;;
53751;SDS011;41095;53.090;6.692;2023-04-24T13:26:51;7.85;;;2.03;;
53751;SDS011;41095;53.090;6.692;2023-04-24T13:29:17;3.83;;;1.63;;
53751;SDS011;41095;53.090;6.692;2023-04-24T13:31:43;2.10;;;1.77;;
53751;SDS011;41095;53.090;6.692;2023-04-24T13:34:09;2.92;;;1.60;;
53751;SDS011;41095;53.090;6.692;2023-04-24T13:36:35;3.42;;;1.60;;
53751;SDS011;41095;53.090;6.692;2023-04-24T13:39:01;4.25;;;1.52;;
53751;SDS011;41095;53.090;6.692;2023-04-24T13:41:31;2.95;;;1.75;;
53751;SDS011;41095;53.090;6.692;2023-04-24T13:43:58;4.70;;;1.90;;
53751;SDS011;41095;53.090;6.692;2023-04-24T13:46:24;6.82;;;1.58;;
53751;SDS011;41095;53.090;6.692;2023-04-24T13:48:50;1.88;;;1.23;;
53751;SDS011;41095;53.090;6.692;2023-04-24T13:51:16;1.70;;;1.20;;
53751;SDS011;41095;53.090;6.692;2023-04-24T13:53:41;1.60;;;1.20;;
53751;SDS011;41095;53.090;6.692;2023-04-24T13:56:07;6.13;;;1.45;;
53751;SDS011;41095;53.090;6.692;2023-04-24T13:58:34;5.15;;;1.48;;
53751;SDS011;41095;53.090;6.692;2023-04-24T14:01:02;2.22;;;1.10;;
53751;SDS011;41095;53.090;6.692;2023-04-24T14:03:28;3.38;;;1.33;;
53751;SDS011;41095;53.090;6.692;2023-04-24T14:05:54;2.25;;;1.15;;
53751;SDS011;41095;53.090;6.692;2023-04-24T14:08:20;0.73;;;0.70;;
53751;SDS011;41095;53.090;6.692;2023-04-24T14:10:45;2.03;;;1.10;;
53751;SDS011;41095;53.090;6.692;2023-04-24T14:13:11;3.35;;;1.35;;
53751;SDS011;41095;53.090;6.692;2023-04-24T14:15:37;2.53;;;1.17;;
53751;SDS011;41095;53.090;6.692;2023-04-24T14:18:03;2.05;;;1.13;;
53751;SDS011;41095;53.090;6.692;2023-04-24T14:20:29;3.28;;;1.77;;
53751;SDS011;41095;53.090;6.692;2023-04-24T14:22:55;3.25;;;1.20;;
53751;SDS011;41095;53.090;6.692;2023-04-24T14:25:24;2.97;;;1.80;;
53751;SDS011;41095;53.090;6.692;2023-04-24T14:27:50;7.88;;;1.80;;
53751;SDS011;41095;53.090;6.692;2023-04-24T14:30:16;4.60;;;2.50;;
53751;SDS011;41095;53.090;6.692;2023-04-24T14:32:41;6.80;;;2.63;;
53751;SDS011;41095;53.090;6.692;2023-04-24T14:35:07;5.13;;;2.28;;
53751;SDS011;41095;53.090;6.692;2023-04-24T14:37:34;5.53;;;3.22;;
53751;SDS011;41095;53.090;6.692;2023-04-24T14:40:00;6.10;;;2.40;;
53751;SDS011;41095;53.090;6.692;2023-04-24T14:42:26;5.57;;;2.85;;
53751;SDS011;41095;53.090;6.692;2023-04-24T14:44:53;4.28;;;3.03;;
53751;SDS011;41095;53.090;6.692;2023-04-24T14:47:19;7.43;;;2.78;;
53751;SDS011;41095;53.090;6.692;2023-04-24T14:49:47;6.82;;;3.10;;
53751;SDS011;41095;53.090;6.692;2023-04-24T14:52:13;5.80;;;3.53;;
53751;SDS011;41095;53.090;6.692;2023-04-24T14:54:39;6.47;;;2.50;;
53751;SDS011;41095;53.090;6.692;2023-04-24T14:57:05;7.38;;;3.00;;
53751;SDS011;41095;53.090;6.692;2023-04-24T14:59:30;5.32;;;2.58;;
53751;SDS011;41095;53.090;6.692;2023-04-24T15:01:57;9.93;;;3.22;;
53751;SDS011;41095;53.090;6.692;2023-04-24T15:04:25;5.18;;;3.00;;
53751;SDS011;41095;53.090;6.692;2023-04-24T15:06:52;7.40;;;2.78;;
53751;SDS011;41095;53.090;6.692;2023-04-24T15:09:19;7.65;;;3.05;;